Time;durP1;ratioP1;P1;durP2;ratioP2;P2;SDS_P1;SDS_P2;PMS_P1;PMS_P2;Temp;Humidity;BMP_temperature;BMP_pressure;BME280_temperature;BME280_humidity;BME280_pressure;Samples;Min_cycle;Max_cycle;Signal;HPM_P1;HPM_P2
2022/04/02 00:01:15;;;;;;;16.20;10.10;;;0.10;99.90;;;;;;4438796;32;20159;-65
2022/04/02 00:03:43;;;;;;;15.53;9.40;;;0.10;99.90;;;;;;4437871;32;20259;-65
2022/04/02 00:06:10;;;;;;;16.83;9.73;;;0.10;99.90;;;;;;4439408;32;20269;-65
2022/04/02 00:08:37;;;;;;;15.93;9.30;;;0.10;99.90;;;;;;4437795;32;20201;-66
2022/04/02 00:11:04;;;;;;;15.60;9.40;;;0.10;99.90;;;;;;4439208;32;20138;-65
2022/04/02 00:13:31;;;;;;;16.33;9.23;;;0.10;99.90;;;;;;4439166;32;20201;-66
2022/04/02 00:15:59;;;;;;;15.43;9.03;;;0.10;99.90;;;;;;4439051;32;20165;-66
2022/04/02 00:18:26;;;;;;;15.60;9.43;;;0.10;99.90;;;;;;4437453;32;20170;-65
2022/04/02 00:20:53;;;;;;;15.97;9.53;;;0.10;99.90;;;;;;4437868;32;20182;-66
2022/04/02 00:26:08;;;;;;;14.10;8.50;;;0.10;99.90;;;;;;4437741;32;20178;-65
2022/04/02 00:28:36;;;;;;;16.53;9.50;;;0.10;99.90;;;;;;4437487;32;20488;-65
2022/04/02 00:31:04;;;;;;;15.53;9.07;;;0.10;99.90;;;;;;4442951;32;20139;-66
2022/04/02 00:33:31;;;;;;;14.23;8.83;;;0.10;99.90;;;;;;4440887;32;20231;-66
2022/04/02 00:35:58;;;;;;;15.20;9.13;;;0.10;99.90;;;;;;4442459;32;20180;-66
2022/04/02 00:38:25;;;;;;;15.43;9.50;;;0.10;99.90;;;;;;4441863;32;20155;-66
2022/04/02 00:40:53;;;;;;;14.43;9.00;;;0.10;99.90;;;;;;4440916;32;20222;-66
2022/04/02 00:43:28;;;;;;;14.77;9.30;;;0.10;99.90;;;;;;4441857;32;20181;-66
2022/04/02 00:45:58;;;;;;;17.67;8.63;;;0.10;99.90;;;;;;4442296;32;20170;-66
2022/04/02 00:48:29;;;;;;;15.70;8.87;;;0.10;99.90;;;;;;4441530;32;20150;-66
2022/04/02 00:50:57;;;;;;;14.47;8.50;;;0.10;99.90;;;;;;4443246;32;20191;-66
2022/04/02 00:53:28;;;;;;;13.30;8.10;;;0.10;99.90;;;;;;4442035;32;20232;-66
2022/04/02 00:55:55;;;;;;;15.00;8.77;;;0.10;99.90;;;;;;4443363;32;20158;-66
2022/04/02 00:58:22;;;;;;;12.80;8.20;;;0.00;99.90;;;;;;4447740;32;20532;-66
2022/04/02 01:00:49;;;;;;;14.03;8.77;;;0.00;99.90;;;;;;4448127;32;20220;-66
2022/04/02 01:03:16;;;;;;;15.10;8.80;;;0.00;99.90;;;;;;4442988;32;20216;-66
2022/04/02 01:05:44;;;;;;;14.70;9.00;;;0.00;99.90;;;;;;4441851;32;20191;-65
2022/04/02 01:08:11;;;;;;;13.87;8.83;;;0.00;99.90;;;;;;4440467;32;20178;-66
2022/04/02 01:10:39;;;;;;;13.30;8.47;;;0.00;99.90;;;;;;4440936;32;20421;-66
2022/04/02 01:13:08;;;;;;;13.37;8.70;;;0.00;99.90;;;;;;4441932;32;20147;-66
2022/04/02 01:15:38;;;;;;;15.83;9.03;;;0.00;99.90;;;;;;4443624;32;20476;-66
2022/04/02 01:18:05;;;;;;;13.17;8.47;;;0.00;99.90;;;;;;4441942;32;20194;-66
2022/04/02 01:20:34;;;;;;;13.67;8.10;;;0.00;99.90;;;;;;4441302;32;20213;-65
2022/04/02 01:23:02;;;;;;;13.27;8.20;;;0.00;99.90;;;;;;4439721;32;20231;-66
2022/04/02 01:25:32;;;;;;;13.80;8.20;;;0.00;99.90;;;;;;4439952;32;20174;-65
2022/04/02 01:28:00;;;;;;;14.77;8.63;;;0.00;99.90;;;;;;4439830;32;20251;-66
2022/04/02 01:30:28;;;;;;;12.33;8.30;;;0.00;99.90;;;;;;4441812;32;20200;-66
2022/04/02 01:32:56;;;;;;;11.97;7.40;;;0.00;99.90;;;;;;4439840;32;20186;-65
2022/04/02 01:35:24;;;;;;;11.03;7.67;;;-0.10;99.90;;;;;;4440500;32;20186;-65
2022/04/02 01:37:51;;;;;;;11.53;7.57;;;-0.10;99.90;;;;;;4439615;32;20193;-65
2022/04/02 01:40:19;;;;;;;11.83;7.40;;;-0.10;99.90;;;;;;4439477;32;20183;-65
2022/04/02 01:42:47;;;;;;;11.47;7.10;;;-0.10;99.90;;;;;;4439112;32;20170;-66
2022/04/02 01:45:15;;;;;;;11.07;6.90;;;-0.10;99.90;;;;;;4441254;32;20438;-65
2022/04/02 01:47:42;;;;;;;11.27;7.87;;;-0.10;99.90;;;;;;4441285;32;20546;-65
2022/04/02 01:50:10;;;;;;;11.77;7.10;;;-0.10;99.90;;;;;;4439902;32;20572;-65
2022/04/02 01:52:38;;;;;;;11.30;7.00;;;-0.20;99.90;;;;;;4440927;32;20547;-65
2022/04/02 01:55:05;;;;;;;9.67;6.67;;;-0.10;99.90;;;;;;4439996;32;20193;-65
2022/04/02 01:57:33;;;;;;;10.43;6.97;;;-0.10;99.90;;;;;;4439531;32;20289;-65
2022/04/02 01:59:59;;;;;;;11.60;6.70;;;-0.20;99.90;;;;;;4441248;32;20165;-65
2022/04/02 02:02:26;;;;;;;12.17;6.83;;;-0.20;99.90;;;;;;4426616;32;20208;-65
2022/04/02 02:04:54;;;;;;;12.17;6.80;;;-0.20;99.90;;;;;;4439274;32;20532;-65
2022/04/02 02:07:20;;;;;;;11.17;6.40;;;-0.20;99.90;;;;;;4439790;32;20182;-65
2022/04/02 02:09:48;;;;;;;11.37;6.90;;;-0.20;99.90;;;;;;4440565;32;20235;-65
2022/04/02 02:12:15;;;;;;;9.73;6.47;;;-0.20;99.90;;;;;;4440345;32;20448;-65
2022/04/02 02:14:42;;;;;;;10.50;6.47;;;-0.30;99.90;;;;;;4439190;32;20182;-65
2022/04/02 02:17:09;;;;;;;12.90;6.50;;;-0.30;99.90;;;;;;4439189;32;20178;-65
2022/04/02 02:19:36;;;;;;;10.37;6.43;;;-0.30;99.90;;;;;;4440846;32;20175;-65
2022/04/02 02:22:04;;;;;;;7.83;6.00;;;-0.30;99.90;;;;;;4440961;32;20169;-65
2022/04/02 02:24:32;;;;;;;9.70;6.40;;;-0.30;99.90;;;;;;4440951;32;20229;-65
2022/04/02 02:27:00;;;;;;;11.73;6.60;;;-0.30;99.90;;;;;;4439515;32;20198;-65
2022/04/02 02:29:28;;;;;;;9.87;6.70;;;-0.30;99.90;;;;;;4441178;32;20220;-65
2022/04/02 02:31:55;;;;;;;9.33;6.20;;;-0.30;99.90;;;;;;4439394;32;20169;-66
2022/04/02 02:37:09;;;;;;;8.73;5.87;;;-0.30;99.90;;;;;;4439090;32;20190;-65
2022/04/02 02:39:36;;;;;;;13.17;6.40;;;-0.30;99.90;;;;;;4438599;32;20245;-65
2022/04/02 02:42:03;;;;;;;8.93;5.90;;;-0.30;99.90;;;;;;4439376;32;20209;-65
2022/04/02 02:44:30;;;;;;;7.53;6.00;;;-0.30;99.90;;;;;;4439752;32;20226;-65
2022/04/02 02:46:57;;;;;;;9.77;6.30;;;-0.30;99.90;;;;;;4439285;32;20166;-65
2022/04/02 02:49:25;;;;;;;9.37;6.33;;;-0.30;99.90;;;;;;4439237;32;20186;-65
2022/04/02 02:51:52;;;;;;;8.57;5.67;;;-0.40;99.90;;;;;;4439765;32;20186;-65
2022/04/02 02:54:19;;;;;;;8.60;5.97;;;-0.40;99.90;;;;;;4440121;32;20214;-65
2022/04/02 02:56:46;;;;;;;9.13;5.87;;;-0.40;99.90;;;;;;4439521;32;20625;-65
2022/04/02 02:59:13;;;;;;;10.93;5.93;;;-0.30;99.90;;;;;;4439786;32;20536;-65
2022/04/02 03:01:41;;;;;;;9.30;5.50;;;-0.40;99.90;;;;;;4438393;32;20182;-66
2022/04/02 03:04:08;;;;;;;9.83;5.70;;;-0.40;99.90;;;;;;4439124;32;20178;-65
2022/04/02 03:06:35;;;;;;;9.23;5.83;;;-0.40;99.90;;;;;;4438454;32;20178;-65
2022/04/02 03:09:03;;;;;;;7.33;5.07;;;-0.40;99.90;;;;;;4441177;32;20192;-65
2022/04/02 03:11:30;;;;;;;9.50;5.57;;;-0.40;99.90;;;;;;4439744;32;20170;-65
2022/04/02 03:13:58;;;;;;;8.73;5.90;;;-0.40;99.90;;;;;;4440588;32;20498;-65
2022/04/02 03:16:25;;;;;;;7.87;5.23;;;-0.40;99.90;;;;;;4438953;32;20231;-65
2022/04/02 03:18:52;;;;;;;9.83;5.60;;;-0.40;99.90;;;;;;4439059;32;20198;-65
2022/04/02 03:21:19;;;;;;;7.53;5.60;;;-0.40;99.90;;;;;;4438106;32;20201;-65
2022/04/02 03:23:46;;;;;;;7.47;5.13;;;-0.40;99.90;;;;;;4439638;32;20218;-65
2022/04/02 03:26:14;;;;;;;8.60;5.93;;;-0.40;99.90;;;;;;4426210;32;20228;-65
2022/04/02 03:28:43;;;;;;;6.83;5.07;;;-0.50;99.90;;;;;;4439813;32;20177;-65
2022/04/02 03:31:10;;;;;;;8.10;5.60;;;-0.40;99.90;;;;;;4438823;32;20174;-65
2022/04/02 03:33:38;;;;;;;8.10;5.50;;;-0.50;99.90;;;;;;4439600;32;20157;-65
2022/04/02 03:36:05;;;;;;;7.03;5.07;;;-0.50;99.90;;;;;;4441381;32;20147;-65
2022/04/02 03:38:33;;;;;;;8.30;5.43;;;-0.50;99.90;;;;;;4438846;32;20229;-65
2022/04/02 03:41:00;;;;;;;8.90;5.50;;;-0.50;99.90;;;;;;4438208;32;20551;-65
2022/04/02 03:43:27;;;;;;;8.50;5.07;;;-0.50;99.90;;;;;;4439375;32;20187;-65
2022/04/02 03:47:07;;;;;;;7.73;5.30;;;-0.50;99.90;;;;;;4438432;32;20175;-65
2022/04/02 03:48:42;;;;;;;7.80;5.03;;;-0.60;99.90;;;;;;4437871;32;20192;-66
2022/04/02 03:51:09;;;;;;;7.57;4.93;;;-0.50;99.90;;;;;;4439183;32;20185;-65
2022/04/02 03:53:36;;;;;;;11.53;5.43;;;-0.50;99.90;;;;;;4439549;32;20239;-65
2022/04/02 03:56:04;;;;;;;7.23;4.90;;;-0.50;99.90;;;;;;4438536;32;20179;-65
2022/04/02 03:58:31;;;;;;;7.33;5.43;;;-0.50;99.90;;;;;;4438790;32;20438;-65
2022/04/02 04:00:58;;;;;;;7.93;5.17;;;-0.50;99.90;;;;;;4439461;32;20182;-65
2022/04/02 04:03:25;;;;;;;7.43;5.20;;;-0.50;99.90;;;;;;4440920;32;20165;-65
2022/04/02 04:05:53;;;;;;;6.53;4.87;;;-0.50;99.90;;;;;;4439006;32;20201;-65
2022/04/02 04:08:20;;;;;;;7.37;5.00;;;-0.60;99.90;;;;;;4439539;32;20241;-65
2022/04/02 04:10:49;;;;;;;8.10;5.20;;;-0.60;99.90;;;;;;4439428;32;20186;-66
2022/04/02 04:13:16;;;;;;;7.57;5.07;;;-0.60;99.90;;;;;;4439130;32;20241;-68
2022/04/02 04:15:44;;;;;;;7.07;4.80;;;-0.60;99.90;;;;;;4440981;32;20233;-68
2022/04/02 04:18:11;;;;;;;8.33;5.17;;;-0.60;99.90;;;;;;4439197;32;20174;-68
2022/04/02 04:20:38;;;;;;;6.40;4.80;;;-0.60;99.90;;;;;;4439662;32;20190;-68
2022/04/02 04:23:07;;;;;;;6.97;4.73;;;-0.60;99.90;;;;;;4439120;32;20204;-68
2022/04/02 04:25:34;;;;;;;7.03;4.70;;;-0.60;99.90;;;;;;4440227;32;20222;-67
2022/04/02 04:28:01;;;;;;;6.93;4.80;;;-0.60;99.90;;;;;;4437563;32;20234;-68
2022/04/02 04:30:29;;;;;;;6.50;4.73;;;-0.70;99.90;;;;;;4438089;32;20208;-68
2022/04/02 04:32:57;;;;;;;7.50;4.60;;;-0.70;99.90;;;;;;4438574;32;20442;-67
2022/04/02 04:35:30;;;;;;;7.33;4.50;;;-0.70;99.90;;;;;;4437788;32;20422;-67
2022/04/02 04:37:57;;;;;;;6.63;4.57;;;-0.70;99.90;;;;;;4439402;32;20474;-67
2022/04/02 04:40:24;;;;;;;6.93;4.60;;;-0.60;99.90;;;;;;4439298;32;20173;-67
2022/04/02 04:42:52;;;;;;;6.17;4.47;;;-0.70;99.90;;;;;;4438933;32;20178;-67
2022/04/02 04:45:19;;;;;;;6.90;4.73;;;-0.70;99.90;;;;;;4439470;32;20171;-67
2022/04/02 04:47:46;;;;;;;6.50;4.40;;;-0.60;99.90;;;;;;4426499;32;20591;-67
2022/04/02 04:50:14;;;;;;;6.13;4.60;;;-0.60;99.90;;;;;;4439114;32;20201;-67
2022/04/02 04:52:41;;;;;;;6.83;4.33;;;-0.60;99.90;;;;;;4438152;32;20182;-67
2022/04/02 04:55:09;;;;;;;7.37;4.83;;;-0.70;99.90;;;;;;4438456;32;20183;-67
2022/04/02 04:57:36;;;;;;;7.23;4.63;;;-0.70;99.90;;;;;;4438991;32;20186;-67
2022/04/02 05:00:05;;;;;;;7.27;4.27;;;-0.70;99.90;;;;;;4439081;32;20193;-67
2022/04/02 05:02:32;;;;;;;7.13;4.77;;;-0.70;99.90;;;;;;4437974;32;20253;-67
2022/04/02 05:04:59;;;;;;;8.17;4.30;;;-0.70;99.90;;;;;;4439051;32;20178;-67
2022/04/02 05:07:46;;;;;;;6.17;4.00;;;-0.70;99.90;;;;;;4439228;32;20174;-67
2022/04/02 05:10:14;;;;;;;8.10;4.47;;;-0.60;99.90;;;;;;4437125;32;20571;-68
2022/04/02 05:12:41;;;;;;;5.93;4.07;;;-0.60;99.90;;;;;;4438190;32;20236;-67
2022/04/02 05:15:09;;;;;;;7.80;4.57;;;-0.60;99.90;;;;;;4437463;32;20211;-68
2022/04/02 05:17:37;;;;;;;6.23;4.20;;;-0.60;99.90;;;;;;4441442;32;20238;-68
2022/04/02 05:20:07;;;;;;;6.67;4.33;;;-0.60;99.90;;;;;;4442894;32;20173;-67
2022/04/02 05:22:34;;;;;;;7.00;4.13;;;-0.70;99.90;;;;;;4441686;32;20220;-67
2022/04/02 05:25:01;;;;;;;5.73;4.10;;;-0.70;99.90;;;;;;4439744;32;20193;-68
2022/04/02 05:27:29;;;;;;;7.67;4.33;;;-0.70;99.90;;;;;;4441575;32;20181;-68
2022/04/02 05:29:56;;;;;;;6.87;4.63;;;-0.60;99.90;;;;;;4440157;32;20220;-67
2022/04/02 05:32:23;;;;;;;6.90;4.53;;;-0.60;99.90;;;;;;4439805;32;20220;-67
2022/04/02 05:34:50;;;;;;;5.73;4.10;;;-0.70;99.90;;;;;;4439644;32;20174;-67
2022/04/02 05:37:17;;;;;;;5.50;3.97;;;-0.60;99.90;;;;;;4448881;32;20170;-68
2022/04/02 05:39:45;;;;;;;6.80;4.07;;;-0.60;99.90;;;;;;4440940;32;20197;-68
2022/04/02 05:42:12;;;;;;;6.23;4.20;;;-0.60;99.90;;;;;;4441237;32;20527;-68
2022/04/02 05:44:40;;;;;;;5.87;4.17;;;-0.50;99.90;;;;;;4440737;32;20194;-68
2022/04/02 05:47:07;;;;;;;6.63;4.30;;;-0.50;99.90;;;;;;4441632;32;20147;-68
2022/04/02 05:49:47;;;;;;;6.37;3.87;;;-0.50;99.90;;;;;;4441118;32;20178;-68
2022/04/02 05:52:14;;;;;;;7.47;4.77;;;-0.40;99.90;;;;;;4442249;32;20165;-68
2022/04/02 05:54:42;;;;;;;6.70;4.30;;;-0.40;99.90;;;;;;4440827;32;20178;-68
2022/04/02 05:57:13;;;;;;;6.00;3.97;;;-0.50;99.90;;;;;;4439398;32;20182;-68
2022/04/02 05:59:41;;;;;;;5.93;3.80;;;-0.50;99.90;;;;;;4439598;32;20234;-67
2022/04/02 06:02:10;;;;;;;5.87;4.20;;;-0.50;99.90;;;;;;4440199;32;20185;-70
2022/04/02 06:04:37;;;;;;;6.30;3.90;;;-0.50;99.90;;;;;;4439948;32;20191;-68
2022/04/02 06:07:05;;;;;;;5.20;3.77;;;-0.60;99.90;;;;;;4441594;32;20170;-68
2022/04/02 06:09:32;;;;;;;5.63;3.83;;;-0.60;99.90;;;;;;4441316;32;20185;-68
2022/04/02 06:11:59;;;;;;;7.50;4.10;;;-0.50;99.90;;;;;;4439011;32;20197;-67
2022/04/02 06:14:26;;;;;;;6.13;4.00;;;-0.60;99.90;;;;;;4440319;32;20205;-66
2022/04/02 06:16:53;;;;;;;5.53;3.50;;;-0.50;99.90;;;;;;4439705;32;20254;-68
2022/04/02 06:19:21;;;;;;;5.77;3.60;;;-0.60;99.90;;;;;;4439419;32;20202;-67
2022/04/02 06:21:48;;;;;;;6.43;3.77;;;-0.60;99.90;;;;;;4440346;32;20181;-67
2022/04/02 06:24:16;;;;;;;5.90;3.73;;;-0.60;99.90;;;;;;4441591;32;20143;-67
2022/04/02 06:26:43;;;;;;;5.13;3.60;;;-0.50;99.90;;;;;;4438833;32;20235;-67
2022/04/02 06:29:10;;;;;;;6.47;3.70;;;-0.60;99.90;;;;;;4440807;32;20179;-67
2022/04/02 06:31:39;;;;;;;7.30;3.33;;;-0.60;99.90;;;;;;4440309;32;20249;-67
2022/04/02 06:34:06;;;;;;;5.83;3.97;;;-0.60;99.90;;;;;;4440070;32;20178;-66
2022/04/02 06:36:33;;;;;;;7.97;4.00;;;-0.60;99.90;;;;;;4439936;32;20178;-67
2022/04/02 06:39:00;;;;;;;5.87;4.13;;;-0.70;99.90;;;;;;4444059;32;20167;-68
2022/04/02 06:41:27;;;;;;;6.40;3.60;;;-0.70;99.90;;;;;;4445860;32;20189;-67
2022/04/02 06:43:54;;;;;;;6.27;3.77;;;-0.70;99.90;;;;;;4439058;32;20253;-67
2022/04/02 06:46:21;;;;;;;6.80;4.20;;;-0.70;99.90;;;;;;4439259;32;20230;-67
2022/04/02 06:48:51;;;;;;;5.20;3.77;;;-0.70;99.90;;;;;;4439405;32;20193;-67
2022/04/02 06:51:18;;;;;;;6.23;3.70;;;-0.70;99.90;;;;;;4440924;32;20157;-67
2022/04/02 06:53:46;;;;;;;5.47;4.00;;;-0.60;99.90;;;;;;4440713;32;20151;-67
2022/04/02 06:56:13;;;;;;;6.97;3.67;;;-0.60;99.90;;;;;;4438827;32;20182;-67
2022/04/02 06:58:40;;;;;;;6.27;3.63;;;-0.60;99.90;;;;;;4441423;32;20162;-67
2022/04/02 07:01:07;;;;;;;7.67;3.67;;;-0.70;99.90;;;;;;4438705;32;20246;-67
2022/04/02 07:03:35;;;;;;;5.50;3.53;;;-0.60;99.90;;;;;;4440044;32;20431;-67
2022/04/02 07:06:03;;;;;;;6.13;3.67;;;-0.60;99.90;;;;;;4438851;32;20171;-67
2022/04/02 07:08:30;;;;;;;6.53;3.57;;;-0.60;99.90;;;;;;4439943;32;20174;-67
2022/04/02 07:10:57;;;;;;;7.80;4.20;;;-0.60;99.90;;;;;;4438364;32;20406;-67
2022/04/02 07:13:24;;;;;;;5.17;3.93;;;-0.50;99.90;;;;;;4438545;32;20244;-66
2022/04/02 07:15:52;;;;;;;7.20;3.63;;;-0.40;99.90;;;;;;4438628;32;20174;-67
2022/04/02 07:18:21;;;;;;;10.20;4.07;;;-0.40;99.90;;;;;;4440580;32;20169;-66
2022/04/02 07:20:56;;;;;;;7.90;3.90;;;-0.30;99.90;;;;;;4439041;32;20447;-66
2022/04/02 07:23:24;;;;;;;8.37;3.97;;;-0.30;99.90;;;;;;4439341;32;20431;-67
2022/04/02 07:25:55;;;;;;;7.33;4.10;;;-0.30;99.90;;;;;;4439821;32;20202;-67
2022/04/02 07:28:25;;;;;;;7.67;4.20;;;-0.20;99.90;;;;;;4438627;32;20222;-68
2022/04/02 07:30:52;;;;;;;7.97;4.37;;;-0.20;99.90;;;;;;4438848;32;20233;-67
2022/04/02 07:33:19;;;;;;;6.63;4.00;;;-0.20;99.90;;;;;;4438087;32;20178;-67
2022/04/02 07:36:03;;;;;;;7.07;3.90;;;-0.20;99.90;;;;;;4438372;32;20217;-67
2022/04/02 07:38:42;;;;;;;5.87;4.07;;;-0.10;99.90;;;;;;4437964;32;20529;-67
2022/04/02 07:41:34;;;;;;;6.10;3.90;;;-0.10;99.90;;;;;;4438767;32;20177;-67
2022/04/02 07:44:31;;;;;;;7.67;3.73;;;-0.10;99.90;;;;;;4438668;32;20190;-67
2022/04/02 07:46:59;;;;;;;5.87;3.67;;;-0.10;99.90;;;;;;4438304;32;20174;-67
2022/04/02 07:49:30;;;;;;;7.23;4.03;;;0.00;99.90;;;;;;4439277;32;20208;-67
2022/04/02 07:51:58;;;;;;;7.67;4.07;;;0.10;99.90;;;;;;4438856;32;20174;-67
2022/04/02 07:54:26;;;;;;;5.70;4.10;;;0.10;99.90;;;;;;4440985;32;20159;-67
2022/04/02 07:57:03;;;;;;;6.90;4.47;;;0.10;99.90;;;;;;4438041;32;20178;-67
2022/04/02 07:59:34;;;;;;;6.37;4.27;;;0.20;99.90;;;;;;4438440;32;20192;-67
2022/04/02 08:02:02;;;;;;;5.90;4.13;;;0.20;99.90;;;;;;4439548;32;20186;-67
2022/04/02 08:04:30;;;;;;;6.30;4.40;;;0.30;99.90;;;;;;4438986;32;20415;-67
2022/04/02 08:06:58;;;;;;;8.00;4.43;;;0.30;99.90;;;;;;4438468;32;20170;-67
2022/04/02 08:09:26;;;;;;;7.33;4.33;;;0.40;99.90;;;;;;4437687;32;20201;-67
2022/04/02 08:11:54;;;;;;;6.00;3.97;;;0.30;99.90;;;;;;4438953;32;20154;-67
2022/04/02 08:14:24;;;;;;;6.23;4.10;;;0.40;99.90;;;;;;4437873;32;20232;-67
2022/04/02 08:16:52;;;;;;;7.40;4.20;;;0.40;99.90;;;;;;4437924;32;20588;-67
2022/04/02 08:19:22;;;;;;;8.70;4.47;;;0.40;99.90;;;;;;4438115;32;20416;-67
2022/04/02 08:21:49;;;;;;;5.97;4.13;;;0.40;99.90;;;;;;4437530;32;20600;-67
2022/04/02 08:24:16;;;;;;;5.40;3.97;;;0.40;99.90;;;;;;4438727;32;20194;-67
2022/04/02 08:27:09;;;;;;;7.33;4.23;;;0.50;99.90;;;;;;4437397;32;20291;-67
2022/04/02 08:29:54;;;;;;;5.77;4.00;;;0.50;99.90;;;;;;4434635;32;20182;-67
2022/04/02 08:32:20;;;;;;;6.10;4.20;;;0.50;99.90;;;;;;4437806;32;20177;-67
2022/04/02 08:34:47;;;;;;;6.10;4.47;;;0.50;99.90;;;;;;4438130;32;20175;-68
2022/04/02 08:37:24;;;;;;;6.77;4.23;;;0.50;99.90;;;;;;4437550;32;20178;-67
2022/04/02 08:40:11;;;;;;;9.10;4.47;;;0.50;99.90;;;;;;4438224;32;20182;-68
2022/04/02 08:42:47;;;;;;;8.10;4.70;;;0.60;99.90;;;;;;4439385;32;20220;-68
2022/04/02 08:45:19;;;;;;;7.70;4.40;;;0.70;99.90;;;;;;4438108;32;20167;-68
2022/04/02 08:48:23;;;;;;;7.13;4.37;;;0.70;99.90;;;;;;4438157;32;20255;-68
2022/04/02 08:51:31;;;;;;;5.57;4.13;;;0.80;99.90;;;;;;4439079;32;20178;-68
2022/04/02 08:54:04;;;;;;;9.07;4.50;;;0.80;99.90;;;;;;4440593;32;20429;-67
2022/04/02 08:56:43;;;;;;;6.23;4.30;;;0.90;99.90;;;;;;4440691;32;20265;-68
2022/04/02 08:59:25;;;;;;;7.27;4.40;;;0.80;99.90;;;;;;4441822;32;20488;-68
2022/04/02 09:02:17;;;;;;;6.97;4.80;;;0.70;99.90;;;;;;4440818;32;20174;-68
2022/04/02 09:05:06;;;;;;;6.63;4.87;;;0.80;99.90;;;;;;4440177;32;20174;-68
2022/04/02 09:07:59;;;;;;;8.63;4.93;;;0.70;99.90;;;;;;4441201;32;20235;-68
2022/04/02 09:10:57;;;;;;;7.43;4.93;;;0.70;99.90;;;;;;4440368;32;20174;-68
2022/04/02 09:13:52;;;;;;;8.80;5.30;;;0.80;99.90;;;;;;4440151;32;20178;-68
2022/04/02 09:16:36;;;;;;;8.17;5.13;;;0.80;99.90;;;;;;4440324;32;20196;-67
2022/04/02 09:19:13;;;;;;;7.33;5.03;;;0.70;99.90;;;;;;4440947;32;20456;-68
2022/04/02 09:21:59;;;;;;;10.97;6.03;;;0.70;99.90;;;;;;4440482;32;20403;-68
2022/04/02 09:24:57;;;;;;;9.03;5.23;;;0.80;99.90;;;;;;4441343;32;20205;-68
2022/04/02 09:27:54;;;;;;;8.37;5.20;;;0.90;99.90;;;;;;4441427;32;20170;-68
2022/04/02 09:30:49;;;;;;;9.33;6.23;;;0.90;99.90;;;;;;4441881;32;20406;-70
2022/04/02 09:33:36;;;;;;;9.07;5.63;;;0.90;99.90;;;;;;4441294;32;20217;-69
2022/04/02 09:36:18;;;;;;;9.93;6.10;;;0.90;99.90;;;;;;4440514;32;20235;-69
2022/04/02 09:39:22;;;;;;;12.10;6.97;;;0.90;99.90;;;;;;4439307;32;20188;-69
2022/04/02 09:42:09;;;;;;;8.47;5.80;;;1.00;99.90;;;;;;4437461;32;20230;-68
2022/04/02 09:44:42;;;;;;;9.93;6.07;;;1.00;99.90;;;;;;4442131;32;20209;-68
2022/04/02 09:47:19;;;;;;;7.90;5.70;;;0.90;99.90;;;;;;4440562;32;20174;-68
2022/04/02 09:50:11;;;;;;;10.20;6.30;;;1.00;99.90;;;;;;4440785;32;20169;-67
2022/04/02 09:52:55;;;;;;;8.30;5.73;;;1.10;99.90;;;;;;4441794;32;20216;-68
2022/04/02 09:55:23;;;;;;;10.10;5.93;;;1.20;99.90;;;;;;4442348;32;20219;-68
2022/04/02 09:57:53;;;;;;;13.67;6.10;;;1.20;99.90;;;;;;4441212;32;20155;-68
2022/04/02 10:00:21;;;;;;;10.37;6.30;;;1.30;99.90;;;;;;4440279;32;20169;-68
2022/04/02 10:03:08;;;;;;;9.53;6.17;;;1.30;99.90;;;;;;4440021;32;20402;-68
2022/04/02 10:05:54;;;;;;;9.20;5.97;;;1.30;99.90;;;;;;4440649;32;20146;-68
2022/04/02 10:08:35;;;;;;;8.97;5.73;;;1.40;99.90;;;;;;4439516;32;20439;-67
2022/04/02 10:11:02;;;;;;;10.03;6.47;;;1.40;99.90;;;;;;4440941;32;20198;-67
2022/04/02 10:13:33;;;;;;;13.30;6.33;;;1.40;99.90;;;;;;4439955;32;20200;-67
2022/04/02 10:16:00;;;;;;;8.83;6.30;;;1.50;99.90;;;;;;4439447;32;20174;-68
2022/04/02 10:18:28;;;;;;;8.13;5.73;;;1.50;99.90;;;;;;4439276;32;20262;-68
2022/04/02 10:20:58;;;;;;;8.60;5.80;;;1.50;99.90;;;;;;4440707;32;20137;-67
2022/04/02 10:23:30;;;;;;;11.37;6.03;;;1.40;99.90;;;;;;4440700;32;20134;-68
2022/04/02 10:26:09;;;;;;;9.47;5.80;;;1.50;99.90;;;;;;4440784;32;20198;-68
2022/04/02 10:28:51;;;;;;;10.07;6.20;;;1.60;99.90;;;;;;4438713;32;20570;-68
2022/04/02 10:31:37;;;;;;;10.33;6.07;;;1.70;99.90;;;;;;4442139;32;20476;-68
2022/04/02 10:34:10;;;;;;;9.43;5.60;;;1.70;99.90;;;;;;4438929;32;20261;-68
2022/04/02 10:36:50;;;;;;;8.13;5.60;;;1.70;99.90;;;;;;4440408;32;20608;-68
2022/04/02 10:39:23;;;;;;;10.27;5.97;;;1.70;99.90;;;;;;4439017;32;20210;-68
2022/04/02 10:41:56;;;;;;;10.40;5.97;;;1.70;99.90;;;;;;4438954;32;20177;-68
2022/04/02 10:44:32;;;;;;;9.10;5.37;;;1.70;99.90;;;;;;4438923;32;20566;-68
2022/04/02 10:47:05;;;;;;;8.93;5.53;;;1.70;99.90;;;;;;4439499;32;20196;-68
2022/04/02 10:49:34;;;;;;;9.40;5.60;;;1.80;99.90;;;;;;4439906;32;20597;-68
2022/04/02 10:52:02;;;;;;;9.00;5.53;;;1.80;99.90;;;;;;4438722;32;20231;-67
2022/04/02 10:54:30;;;;;;;8.37;5.60;;;1.80;99.90;;;;;;4440191;32;20150;-68
2022/04/02 10:56:57;;;;;;;8.17;5.60;;;1.90;99.90;;;;;;4440562;32;20282;-68
2022/04/02 10:59:30;;;;;;;9.30;5.40;;;1.90;99.90;;;;;;4438904;32;20178;-68
2022/04/02 11:02:00;;;;;;;10.03;6.47;;;2.00;99.90;;;;;;4438608;32;20214;-68
2022/04/02 11:04:47;;;;;;;10.20;5.70;;;2.00;99.90;;;;;;4439482;32;20178;-68
2022/04/02 11:07:37;;;;;;;7.80;5.70;;;1.90;99.90;;;;;;4439124;32;20186;-69
2022/04/02 11:10:05;;;;;;;9.20;6.10;;;1.90;99.90;;;;;;4438774;32;20178;-69
2022/04/02 11:12:41;;;;;;;8.60;5.70;;;1.90;99.90;;;;;;4439664;32;20189;-70
2022/04/02 11:15:22;;;;;;;9.63;5.33;;;2.00;99.90;;;;;;4439204;32;20200;-69
2022/04/02 11:17:54;;;;;;;11.07;5.83;;;2.00;99.90;;;;;;4438654;32;20171;-68
2022/04/02 11:20:25;;;;;;;11.83;6.40;;;2.10;99.90;;;;;;4439275;32;20170;-68
2022/04/02 11:22:52;;;;;;;9.60;6.10;;;2.10;99.90;;;;;;4438384;32;20182;-70
2022/04/02 11:25:31;;;;;;;9.53;6.43;;;2.20;99.90;;;;;;4439419;32;20190;-70
2022/04/02 11:28:10;;;;;;;11.43;5.93;;;2.20;99.90;;;;;;4437963;32;20536;-70
2022/04/02 11:30:40;;;;;;;10.90;6.43;;;2.20;99.90;;;;;;4438566;32;20232;-70
2022/04/02 11:33:14;;;;;;;9.57;6.73;;;2.30;99.90;;;;;;4439462;32;20248;-71
2022/04/02 11:35:45;;;;;;;10.70;6.93;;;2.40;99.90;;;;;;4438234;32;20484;-71
2022/04/02 11:38:21;;;;;;;9.47;6.60;;;2.50;99.90;;;;;;4441008;32;20147;-71
2022/04/02 11:41:23;;;;;;;11.90;6.43;;;2.60;99.90;;;;;;4438177;32;20249;-72
2022/04/02 11:44:02;;;;;;;10.63;6.40;;;2.60;99.90;;;;;;4439323;32;20198;-72
2022/04/02 11:46:29;;;;;;;11.80;6.27;;;2.70;99.90;;;;;;4439688;32;20182;-71
2022/04/02 11:49:00;;;;;;;11.03;6.57;;;2.70;99.90;;;;;;4437868;32;20249;-71
2022/04/02 11:51:30;;;;;;;10.40;6.40;;;2.70;99.90;;;;;;4440312;32;20179;-71
2022/04/02 11:54:08;;;;;;;10.27;6.43;;;2.80;99.90;;;;;;4439366;32;20173;-71
2022/04/02 11:56:43;;;;;;;9.93;6.03;;;2.80;99.90;;;;;;4437673;32;20170;-71
2022/04/02 11:59:15;;;;;;;10.73;6.23;;;2.80;99.90;;;;;;4438251;32;20182;-71
2022/04/02 12:01:50;;;;;;;10.33;6.37;;;2.90;99.90;;;;;;4439286;32;20143;-72
2022/04/02 12:04:22;;;;;;;10.33;6.67;;;3.00;99.90;;;;;;4438684;32;20403;-71
2022/04/02 12:06:51;;;;;;;10.40;6.73;;;3.20;99.90;;;;;;4439091;32;20525;-71
2022/04/02 12:09:23;;;;;;;10.63;6.97;;;3.20;99.90;;;;;;4438412;32;20170;-71
2022/04/02 12:11:55;;;;;;;11.20;7.17;;;3.30;99.90;;;;;;4437935;32;20175;-70
2022/04/02 12:14:31;;;;;;;13.67;7.10;;;3.30;99.90;;;;;;4438589;32;20178;-70
2022/04/02 12:17:00;;;;;;;12.87;7.27;;;3.40;99.90;;;;;;4439411;32;20182;-70
2022/04/02 12:19:45;;;;;;;11.77;7.00;;;3.40;99.90;;;;;;4437868;32;20203;-71
2022/04/02 12:22:21;;;;;;;13.17;7.17;;;3.50;99.90;;;;;;4438075;32;20441;-70
2022/04/02 12:24:50;;;;;;;12.57;6.80;;;3.50;99.90;;;;;;4437465;32;20224;-70
2022/04/02 12:27:20;;;;;;;11.10;7.33;;;3.50;99.90;;;;;;4440553;32;20468;-70
2022/04/02 12:29:53;;;;;;;11.93;7.33;;;3.50;99.90;;;;;;4442921;32;20167;-70
2022/04/02 12:32:29;;;;;;;10.67;7.00;;;3.50;99.90;;;;;;4441160;32;20440;-70
2022/04/02 12:35:24;;;;;;;11.30;6.83;;;3.40;99.90;;;;;;4440774;32;20207;-70
2022/04/02 12:37:53;;;;;;;12.20;6.67;;;3.40;99.90;;;;;;4435377;32;20412;-71
2022/04/02 12:40:25;;;;;;;11.40;7.07;;;3.40;99.90;;;;;;4440774;32;20182;-71
2022/04/02 12:43:01;;;;;;;10.70;6.50;;;3.40;99.90;;;;;;4440441;32;20210;-72
2022/04/02 12:45:33;;;;;;;10.97;6.27;;;3.50;99.90;;;;;;4440828;32;20528;-72
2022/04/02 12:48:20;;;;;;;9.93;5.90;;;3.50;99.90;;;;;;4442422;32;20167;-72
2022/04/02 12:50:59;;;;;;;11.33;5.87;;;3.50;99.90;;;;;;4441086;32;20541;-72
2022/04/02 12:53:37;;;;;;;7.90;5.50;;;3.50;99.90;;;;;;4441638;32;20151;-72
2022/04/02 12:56:07;;;;;;;10.37;6.10;;;3.50;99.90;;;;;;4440468;32;20478;-72
2022/04/02 12:58:38;;;;;;;10.30;6.03;;;3.40;99.90;;;;;;4440225;32;20194;-72
2022/04/02 13:01:30;;;;;;;10.63;6.17;;;3.50;99.90;;;;;;4440203;32;20181;-72
2022/04/02 13:04:01;;;;;;;9.60;5.73;;;3.50;99.90;;;;;;4440634;32;20239;-71
2022/04/02 13:06:32;;;;;;;11.17;6.20;;;3.50;99.90;;;;;;4440316;32;20171;-72
2022/04/02 13:09:20;;;;;;;9.20;5.80;;;3.50;99.90;;;;;;4440477;32;20175;-71
2022/04/02 13:11:53;;;;;;;10.03;6.27;;;3.60;99.90;;;;;;4442143;32;20189;-71
2022/04/02 13:14:35;;;;;;;9.67;6.00;;;4.00;99.90;;;;;;4441291;32;20227;-72
2022/04/02 13:17:11;;;;;;;9.57;5.77;;;4.30;99.90;;;;;;4440382;32;20181;-72